Terminal Aerodrome Forecast
Issued by NWS

Home | Current Version | Previous Version | Text Only | Print | Product List | Glossary On
Versions: 1 2 3 4 5 6 7 8 9 10 11 12 13 14 15 16 17 18 19 20 21 22
000
FTUS43 KDLH 250814 AAA
TAFHIB
TAF AMD
KHIB 250814Z 2508/2606 13010KT P6SM OVC006
     FM251500 11008KT P6SM SCT015 BKN120
     FM251700 12011G18KT P6SM BKN100
     FM252300 12011KT P6SM VCSH SCT040 BKN080
     FM260200 12012KT 5SM -SHRA BR BKN025 OVC060=

USA.gov is the U.S. government's official web portal to all federal, state and local government web resources and services.